createdAt,value
2022-09-22T00:04:18.348Z,100802.31
2022-09-22T00:09:21.334Z,100800.72
2022-09-22T00:14:28.317Z,100797.28
2022-09-22T00:19:31.085Z,100791.16
2022-09-22T00:24:33.553Z,100791.16
2022-09-22T00:29:35.209Z,100786.72
2022-09-22T00:34:36.789Z,100778.69
2022-09-22T00:39:38.352Z,100775.59
2022-09-22T00:44:44.277Z,100773.97
2022-09-22T00:50:14.216Z,100777.63
2022-09-22T00:55:24.740Z,100775.03
2022-09-22T01:00:26.478Z,100768.94
2022-09-22T01:05:30.273Z,100774.56
2022-09-22T01:10:32.110Z,100766.63
2022-09-22T01:15:47.178Z,100760.88
2022-09-22T01:20:54.790Z,100761.19
2022-09-22T01:26:17.872Z,100763.59
2022-09-22T01:31:43.688Z,100769.22
2022-09-22T01:37:07.405Z,100771.94
2022-09-22T01:42:15.311Z,100770.97
2022-09-22T01:47:24.317Z,100776.13
2022-09-22T01:52:29.645Z,100763.84
2022-09-22T01:57:40.015Z,100768.13
2022-09-22T02:02:53.035Z,100761.16
2022-09-22T02:07:57.063Z,100760.69
2022-09-22T02:13:00.569Z,100756.59
2022-09-22T02:18:09.371Z,100752.88
2022-09-22T02:23:10.930Z,100754.56
2022-09-22T02:28:18.105Z,100753.19
2022-09-22T02:33:23.622Z,100755.13
2022-09-22T02:38:59.860Z,100749.53
2022-09-22T02:44:13.427Z,100749.53
2022-09-22T02:49:18.323Z,100745.47
2022-09-22T02:54:20.955Z,100753.47
2022-09-22T02:59:22.540Z,100750.13
2022-09-22T03:04:24.480Z,100746.66
2022-09-22T03:09:26.320Z,100735.34
2022-09-22T03:14:27.890Z,100744.94
2022-09-22T03:19:29.496Z,100735.22
2022-09-22T03:24:31.426Z,100745.72
2022-09-22T03:29:33.098Z,100743.28
2022-09-22T03:34:34.670Z,100739.84
2022-09-22T03:39:36.232Z,100741.34
2022-09-22T03:44:37.792Z,100743.91
2022-09-22T03:49:39.310Z,100740.63
2022-09-22T03:54:40.842Z,100737.09
2022-09-22T03:59:42.588Z,100730.94
2022-09-22T04:04:44.409Z,100736.28
2022-09-22T04:09:46.018Z,100730.25
2022-09-22T04:14:47.531Z,100730.38
2022-09-22T04:19:49.664Z,100722.50
2022-09-22T04:24:51.378Z,100726.94
2022-09-22T04:29:53.010Z,100733.03
2022-09-22T04:34:54.643Z,100731.28
2022-09-22T04:39:56.347Z,100738.25
2022-09-22T04:45:01.953Z,100729.44
2022-09-22T04:50:03.810Z,100726.03
2022-09-22T04:55:05.913Z,100728.72
2022-09-22T05:00:08.286Z,100745.22
2022-09-22T05:05:10.268Z,100743.47
2022-09-22T05:10:17.918Z,100752.16
2022-09-22T05:15:20.712Z,100759.16
2022-09-22T05:20:22.441Z,100766.97
2022-09-22T05:25:24.160Z,100775.66
2022-09-22T05:30:26.879Z,100775.66
2022-09-22T05:35:30.819Z,100774.75
2022-09-22T05:40:36.051Z,100774.63
2022-09-22T05:45:37.708Z,100779.81
2022-09-22T05:50:39.416Z,100772.88
2022-09-22T05:55:41.634Z,100774.56
2022-09-22T06:00:43.384Z,100783.22
2022-09-22T06:05:45.722Z,100772.59
2022-09-22T06:10:49.053Z,100767.25
2022-09-22T06:15:50.705Z,100770.75
2022-09-22T06:20:56.056Z,100763.69
2022-09-22T06:25:59.260Z,100767.13
2022-09-22T06:31:01.170Z,100770.34
2022-09-22T06:36:02.842Z,100782.53
2022-09-22T06:41:06.889Z,100786.84
2022-09-22T06:46:10.969Z,100778.72
2022-09-22T06:51:14.189Z,100776.00
2022-09-22T06:56:17.228Z,100776.81
2022-09-22T07:01:19.673Z,100778.63
2022-09-22T07:06:22.459Z,100779.47
2022-09-22T07:11:24.054Z,100779.31
2022-09-22T07:16:26.784Z,100777.94
2022-09-22T07:21:37.614Z,100778.38
2022-09-22T07:26:39.796Z,100774.31
2022-09-22T07:31:42.016Z,100769.44
2022-09-22T07:36:44.134Z,100780.56
2022-09-22T07:41:46.834Z,100773.53
2022-09-22T07:46:48.692Z,100781.44
2022-09-22T07:51:54.995Z,100784.94
2022-09-22T07:56:58.924Z,100774.59
2022-09-22T08:02:01.267Z,100778.53
2022-09-22T08:07:02.928Z,100777.75
2022-09-22T08:12:04.576Z,100780.84
2022-09-22T08:17:06.927Z,100784.19
2022-09-22T08:22:10.903Z,100785.91
2022-09-22T08:27:12.719Z,100789.09
2022-09-22T08:32:19.260Z,100793.34
2022-09-22T08:37:23.217Z,100784.44
2022-09-22T08:42:28.452Z,100782.94
2022-09-22T08:48:02.726Z,100784.13
2022-09-22T08:53:10.028Z,100786.53
2022-09-22T08:58:34.394Z,100774.09
2022-09-22T09:03:46.294Z,100783.03
2022-09-22T09:08:50.956Z,100775.78
2022-09-22T09:13:58.729Z,100784.94
2022-09-22T09:19:33.845Z,100780.47
2022-09-22T09:30:17.951Z,100781.16
2022-09-22T09:35:29.598Z,100791.78
2022-09-22T09:40:31.249Z,100776.19
2022-09-22T09:45:51.692Z,100772.97
2022-09-22T09:50:53.282Z,100772.97
2022-09-22T09:55:54.819Z,100776.13
2022-09-22T10:00:59.349Z,100773.56
2022-09-22T10:06:09.296Z,100766.91
2022-09-22T10:11:14.954Z,100760.34
2022-09-22T10:16:26.273Z,100750.81
2022-09-22T10:21:28.282Z,100744.72
2022-09-22T10:26:32.158Z,100746.16
2022-09-22T10:31:37.842Z,100738.97
2022-09-22T10:36:45.100Z,100741.63
2022-09-22T10:41:48.593Z,100740.59
2022-09-22T10:47:16.911Z,100737.22
2022-09-22T10:52:43.370Z,100743.63
2022-09-22T10:57:56.236Z,100741.53
2022-09-22T11:03:28.467Z,100736.84
2022-09-22T11:09:01.775Z,100730.41
2022-09-22T11:14:15.559Z,100731.25
2022-09-22T11:19:47.539Z,100725.84
2022-09-22T11:24:58.271Z,100728.75
2022-09-22T11:30:21.649Z,100725.00
2022-09-22T11:35:29.245Z,100729.28
2022-09-22T11:46:47.354Z,100713.41
2022-09-22T11:52:02.698Z,100706.66
2022-09-22T11:57:11.198Z,100692.94
2022-09-22T12:02:26.655Z,100689.78
2022-09-22T12:07:37.010Z,100680.13
2022-09-22T12:12:42.668Z,100686.50
2022-09-22T12:17:59.698Z,100680.97
2022-09-22T12:23:19.441Z,100667.72
2022-09-22T12:28:28.064Z,100673.44
2022-09-22T12:33:33.769Z,100667.75
2022-09-22T12:38:35.597Z,100667.56
2022-09-22T12:43:37.508Z,100670.66
2022-09-22T12:48:39.218Z,100660.97
2022-09-22T12:53:43.719Z,100660.69
2022-09-22T12:58:46.058Z,100656.53
2022-09-22T13:03:50.469Z,100653.38
2022-09-22T13:08:54.821Z,100656.66
2022-09-22T13:13:56.354Z,100658.66
2022-09-22T13:18:59.554Z,100654.59
2022-09-22T13:24:02.987Z,100658.28
2022-09-22T13:29:17.292Z,100654.53
2022-09-22T13:34:36.254Z,100647.19
2022-09-22T13:39:46.926Z,100642.38
2022-09-22T13:44:59.011Z,100646.44
2022-09-22T13:50:06.982Z,100636.44
2022-09-22T13:55:14.988Z,100630.16
2022-09-22T14:00:26.408Z,100632.81
2022-09-22T14:05:31.856Z,100616.09
2022-09-22T14:10:34.117Z,100623.34
2022-09-22T14:15:43.760Z,100619.94
2022-09-22T14:20:46.776Z,100609.38
2022-09-22T14:25:48.541Z,100606.03
2022-09-22T14:30:51.067Z,100606.91
2022-09-22T14:36:00.725Z,100614.19
2022-09-22T14:41:03.143Z,100602.28
2022-09-22T14:46:23.065Z,100603.03
2022-09-22T14:56:59.202Z,100600.97
2022-09-22T15:02:20.670Z,100596.91
2022-09-22T15:07:31.473Z,100591.13
2022-09-22T15:12:39.075Z,100594.53
2022-09-22T15:18:01.378Z,100594.16
2022-09-22T15:23:03.444Z,100596.22
2022-09-22T15:28:11.186Z,100586.88
2022-09-22T15:33:15.546Z,100594.94
2022-09-22T15:38:21.537Z,100588.75
2022-09-22T15:43:29.407Z,100592.41
2022-09-22T15:48:37.017Z,100598.34
2022-09-22T15:53:40.370Z,100593.50
2022-09-22T15:58:43.888Z,100596.47
2022-09-22T16:03:46.588Z,100594.34
2022-09-22T16:08:51.462Z,100591.00
2022-09-22T16:13:53.174Z,100577.41
2022-09-22T16:18:58.782Z,100572.84
2022-09-22T16:24:03.915Z,100572.81
2022-09-22T16:29:07.582Z,100569.03
2022-09-22T16:34:10.832Z,100574.78
2022-09-22T16:39:12.551Z,100567.13
2022-09-22T16:44:15.735Z,100570.41
2022-09-22T16:49:20.072Z,100570.63
2022-09-22T16:54:21.960Z,100571.81
2022-09-22T16:59:23.851Z,100569.09
2022-09-22T17:04:25.630Z,100568.03
2022-09-22T17:09:27.422Z,100573.94
2022-09-22T17:14:30.480Z,100575.09
2022-09-22T17:19:32.891Z,100583.38
2022-09-22T17:24:34.537Z,100576.13
2022-09-22T17:29:36.292Z,100585.41
2022-09-22T17:34:38.499Z,100588.59
2022-09-22T17:39:40.190Z,100586.97
2022-09-22T17:44:41.865Z,100583.72
2022-09-22T17:50:02.065Z,100583.38
2022-09-22T17:55:11.761Z,100577.81
2022-09-22T18:00:17.187Z,100582.28
2022-09-22T18:05:21.417Z,100580.28
2022-09-22T18:10:26.317Z,100585.59
2022-09-22T18:15:29.281Z,100588.84
2022-09-22T18:20:32.026Z,100601.97
2022-09-22T18:25:34.125Z,100603.66
2022-09-22T18:30:36.601Z,100602.13
2022-09-22T18:35:38.192Z,100599.28
2022-09-22T18:40:41.200Z,100600.00
2022-09-22T18:45:43.357Z,100600.22
2022-09-22T18:50:45.868Z,100599.66
2022-09-22T18:55:48.429Z,100598.81
2022-09-22T19:00:52.058Z,100611.66
2022-09-22T19:05:53.637Z,100601.56
2022-09-22T19:10:55.170Z,100600.28
2022-09-22T19:15:58.750Z,100611.94
2022-09-22T19:21:03.762Z,100598.16
2022-09-22T19:26:05.913Z,100604.81
2022-09-22T19:51:37.501Z,100602.28
2022-09-22T19:57:18.443Z,100606.81
2022-09-22T20:02:27.687Z,100602.53
2022-09-22T20:07:29.417Z,100599.06
2022-09-22T20:12:31.054Z,100601.84
2022-09-22T20:17:32.792Z,100601.91
2022-09-22T20:22:35.858Z,100598.50
2022-09-22T20:27:41.209Z,100607.34
2022-09-22T20:33:38.028Z,100605.16
2022-09-22T20:39:02.699Z,100609.66
2022-09-22T20:52:29.241Z,100602.13
2022-09-22T20:58:17.363Z,100598.81
2022-09-22T22:48:36.579Z,100573.38
2022-09-22T22:53:38.628Z,100576.16
2022-09-22T22:58:41.675Z,100576.22
2022-09-22T23:03:49.239Z,100573.69
2022-09-22T23:08:52.094Z,100575.31
2022-09-22T23:13:56.243Z,100570.97
2022-09-22T23:18:59.717Z,100578.06
2022-09-22T23:24:03.656Z,100563.34
2022-09-22T23:29:06.794Z,100554.69
2022-09-22T23:34:08.610Z,100546.94
2022-09-22T23:39:11.611Z,100551.28
2022-09-22T23:44:13.623Z,100542.59
2022-09-22T23:49:15.212Z,100545.94
2022-09-22T23:54:16.751Z,100540.72
2022-09-22T23:59:18.280Z,100533.00
